Time;durP1;ratioP1;P1;durP2;ratioP2;P2;SDS_P1;SDS_P2;PMS_P1;PMS_P2;Temp;Humidity;BMP_temperature;BMP_pressure;BME280_temperature;BME280_humidity;BME280_pressure;Samples;Min_cycle;Max_cycle;Signal;HPM_P1;HPM_P2
2023/06/30 00:00:41;;;;;;;;;;;;;;;18.08;100.00;101382.38;5006343;28;20121;-69
2023/06/30 00:03:08;;;;;;;;;;;;;;;18.10;100.00;101385.66;5002097;28;20393;-70
2023/06/30 00:05:34;;;;;;;;;;;;;;;18.05;100.00;101384.56;5001455;28;19936;-70
2023/06/30 00:08:00;;;;;;;;;;;;;;;18.02;100.00;101384.94;5009053;28;19983;-69
2023/06/30 00:10:27;;;;;;;;;;;;;;;18.03;100.00;101386.56;5002947;28;20408;-68
2023/06/30 00:12:53;;;;;;;;;;;;;;;17.95;100.00;101384.81;5009431;28;20001;-70
2023/06/30 00:15:20;;;;;;;;;;;;;;;17.88;100.00;101392.69;4984491;28;19960;-70
2023/06/30 00:17:48;;;;;;;;;;;;;;;17.86;100.00;101375.31;5004601;28;19932;-70
2023/06/30 00:20:14;;;;;;;;;;;;;;;17.84;100.00;101370.16;5009752;28;19926;-70
2023/06/30 00:22:41;;;;;;;;;;;;;;;17.83;100.00;101371.13;5004606;28;19979;-70
2023/06/30 00:25:08;;;;;;;;;;;;;;;17.75;100.00;101371.22;5009846;28;20532;-70
2023/06/30 00:27:34;;;;;;;;;;;;;;;17.77;100.00;101372.69;4996527;28;20157;-70
2023/06/30 00:30:01;;;;;;;;;;;;;;;17.75;100.00;101366.72;4984955;28;19936;-70
2023/06/30 00:32:31;;;;;;;;;;;;;;;17.67;100.00;101373.94;5003562;28;20031;-69
2023/06/30 00:34:58;;;;;;;;;;;;;;;17.72;100.00;101366.25;5004663;28;19936;-69
2023/06/30 00:37:25;;;;;;;;;;;;;;;17.63;100.00;101359.41;5009076;28;19972;-69
2023/06/30 00:39:51;;;;;;;;;;;;;;;17.62;100.00;101376.31;5000063;28;19999;-70
2023/06/30 00:42:18;;;;;;;;;;;;;;;17.51;100.00;101372.28;5005060;28;19930;-70
2023/06/30 00:44:44;;;;;;;;;;;;;;;17.47;100.00;101377.09;5001714;28;19925;-69
2023/06/30 00:47:11;;;;;;;;;;;;;;;17.45;100.00;101373.81;5009505;28;19984;-70
2023/06/30 00:49:37;;;;;;;;;;;;;;;17.44;100.00;101371.31;5007435;28;19937;-70
2023/06/30 00:52:04;;;;;;;;;;;;;;;17.44;100.00;101369.47;5007957;28;19929;-70
2023/06/30 00:54:30;;;;;;;;;;;;;;;17.41;100.00;101369.84;5001776;28;19929;-69
2023/06/30 00:56:58;;;;;;;;;;;;;;;17.35;100.00;101366.09;5002246;28;19929;-70
2023/06/30 00:59:24;;;;;;;;;;;;;;;17.31;100.00;101374.59;5009777;28;20020;-70
2023/06/30 01:01:58;;;;;;;;;;;;;;;17.25;100.00;101375.25;5000334;28;19979;-69
2023/06/30 01:04:31;;;;;;;;;;;;;;;17.22;100.00;101373.81;4997713;28;19949;-70
2023/06/30 01:07:01;;;;;;;;;;;;;;;17.15;100.00;101370.19;5001696;28;19956;-70
2023/06/30 01:09:32;;;;;;;;;;;;;;;17.11;100.00;101369.75;5002016;28;19983;-69
2023/06/30 01:11:59;;;;;;;;;;;;;;;17.03;100.00;101376.91;4996931;28;20006;-70
2023/06/30 01:14:26;;;;;;;;;;;;;;;16.96;100.00;101371.50;5009683;28;19953;-70
2023/06/30 01:16:53;;;;;;;;;;;;;;;16.96;100.00;101368.84;5003014;28;19950;-70
2023/06/30 01:19:48;;;;;;;;;;;;;;;16.93;100.00;101372.66;5003201;28;19929;-70
2023/06/30 01:22:19;;;;;;;;;;;;;;;16.89;100.00;101381.13;4993109;28;19929;-69
2023/06/30 01:24:47;;;;;;;;;;;;;;;16.85;100.00;101383.31;4998986;28;20527;-71
2023/06/30 01:27:14;;;;;;;;;;;;;;;16.82;100.00;101380.16;5008084;28;19929;-70
2023/06/30 01:29:43;;;;;;;;;;;;;;;16.84;100.00;101380.81;5000091;28;19933;-70
2023/06/30 01:32:16;;;;;;;;;;;;;;;16.81;100.00;101392.56;5003102;28;20494;-70
2023/06/30 01:34:43;;;;;;;;;;;;;;;16.78;100.00;101388.44;4981328;28;19930;-70
2023/06/30 01:37:10;;;;;;;;;;;;;;;16.74;100.00;101389.81;5003962;28;20283;-69
2023/06/30 01:39:36;;;;;;;;;;;;;;;16.71;100.00;101386.66;5001047;28;20794;-70
2023/06/30 01:42:04;;;;;;;;;;;;;;;16.71;100.00;101386.66;5003513;28;19930;-69
2023/06/30 01:44:30;;;;;;;;;;;;;;;16.64;100.00;101388.34;5007116;28;19940;-69
2023/06/30 01:46:57;;;;;;;;;;;;;;;16.56;100.00;101384.75;4998888;28;19930;-70
2023/06/30 01:49:23;;;;;;;;;;;;;;;16.59;100.00;101394.16;5000025;28;20655;-70
2023/06/30 01:51:50;;;;;;;;;;;;;;;16.54;100.00;101383.25;5002069;28;19979;-69
2023/06/30 01:54:16;;;;;;;;;;;;;;;16.53;100.00;101382.44;4990556;28;19976;-70
2023/06/30 01:56:46;;;;;;;;;;;;;;;16.48;100.00;101381.28;5008230;28;19972;-70
2023/06/30 01:59:13;;;;;;;;;;;;;;;16.46;100.00;101383.28;4997589;28;19989;-70
2023/06/30 02:01:39;;;;;;;;;;;;;;;16.45;100.00;101379.00;4999276;28;20612;-70
2023/06/30 02:04:05;;;;;;;;;;;;;;;16.39;100.00;101370.75;4999050;28;19929;-70
2023/06/30 02:06:32;;;;;;;;;;;;;;;16.38;100.00;101369.06;5007989;28;19932;-70
2023/06/30 02:08:58;;;;;;;;;;;;;;;16.34;100.00;101366.94;5001780;28;19929;-69
2023/06/30 02:11:24;;;;;;;;;;;;;;;16.34;100.00;101370.41;5007877;28;19933;-69
2023/06/30 02:13:51;;;;;;;;;;;;;;;16.31;100.00;101368.13;4998632;28;19937;-70
2023/06/30 02:16:17;;;;;;;;;;;;;;;16.33;100.00;101365.31;4995166;28;20031;-70
2023/06/30 02:18:44;;;;;;;;;;;;;;;16.30;100.00;101370.94;5006752;28;20278;-70
2023/06/30 02:21:10;;;;;;;;;;;;;;;16.25;100.00;101374.09;5001514;28;20410;-70
2023/06/30 02:23:37;;;;;;;;;;;;;;;16.26;100.00;101377.56;5002383;28;19926;-71
2023/06/30 02:26:03;;;;;;;;;;;;;;;16.26;100.00;101381.03;5000337;28;19935;-70
2023/06/30 02:28:30;;;;;;;;;;;;;;;16.23;100.00;101384.03;4999415;28;19930;-70
2023/06/30 02:30:56;;;;;;;;;;;;;;;16.18;100.00;101373.94;5007859;28;20323;-70
2023/06/30 02:33:23;;;;;;;;;;;;;;;16.14;100.00;101379.75;4999442;28;19929;-70
2023/06/30 02:35:50;;;;;;;;;;;;;;;16.12;100.00;101382.56;5004077;28;19925;-65
2023/06/30 02:38:17;;;;;;;;;;;;;;;16.11;100.00;101378.28;5001815;28;19926;-70
2023/06/30 02:40:43;;;;;;;;;;;;;;;16.04;100.00;101376.47;5000711;28;20048;-70
2023/06/30 02:43:09;;;;;;;;;;;;;;;15.99;100.00;101379.63;4990519;28;19969;-68
2023/06/30 02:45:36;;;;;;;;;;;;;;;15.97;100.00;101394.84;5002090;28;19926;-69
2023/06/30 02:48:02;;;;;;;;;;;;;;;15.95;100.00;101388.88;5004632;28;19925;-70
2023/06/30 02:50:30;;;;;;;;;;;;;;;15.89;100.00;101386.91;5000357;28;19941;-70
2023/06/30 02:52:57;;;;;;;;;;;;;;;15.82;100.00;101384.94;5008212;28;19925;-69
2023/06/30 02:55:24;;;;;;;;;;;;;;;15.77;100.00;101384.59;4997546;28;19965;-70
2023/06/30 02:57:51;;;;;;;;;;;;;;;15.74;100.00;101390.25;5001097;28;20237;-69
2023/06/30 03:00:17;;;;;;;;;;;;;;;15.69;100.00;101397.81;5000531;28;20778;-70
2023/06/30 03:02:43;;;;;;;;;;;;;;;15.62;100.00;101394.16;5000741;28;20024;-70
2023/06/30 03:05:10;;;;;;;;;;;;;;;15.58;100.00;101393.69;4999053;28;19929;-69
2023/06/30 03:07:36;;;;;;;;;;;;;;;15.58;100.00;101392.84;4984699;28;20396;-70
2023/06/30 03:10:03;;;;;;;;;;;;;;;15.52;100.00;101396.16;5001440;28;20343;-70
2023/06/30 03:12:30;;;;;;;;;;;;;;;15.49;100.00;101401.78;4989622;28;19926;-70
2023/06/30 03:14:56;;;;;;;;;;;;;;;15.47;100.00;101403.75;5006344;28;19925;-70
2023/06/30 03:17:24;;;;;;;;;;;;;;;15.45;100.00;101393.34;5001553;28;19933;-70
2023/06/30 03:19:50;;;;;;;;;;;;;;;15.45;100.00;101396.00;5006622;28;20378;-70
2023/06/30 03:22:17;;;;;;;;;;;;;;;15.44;100.00;101394.31;5006707;28;19952;-69
2023/06/30 03:24:43;;;;;;;;;;;;;;;15.42;100.00;101396.31;4988826;28;19925;-70
2023/06/30 03:27:09;;;;;;;;;;;;;;;15.40;100.00;101403.56;5000412;28;19929;-69
2023/06/30 03:29:36;;;;;;;;;;;;;;;15.37;100.00;101402.09;4999480;28;19926;-70
2023/06/30 03:32:02;;;;;;;;;;;;;;;15.32;100.00;101399.09;4988882;28;19979;-70
2023/06/30 03:34:29;;;;;;;;;;;;;;;15.28;100.00;101399.59;4999598;28;19930;-70
2023/06/30 03:36:55;;;;;;;;;;;;;;;15.25;100.00;101402.56;5005488;28;19972;-70
2023/06/30 03:39:21;;;;;;;;;;;;;;;15.22;100.00;101393.16;4998206;28;20043;-69
2023/06/30 03:41:48;;;;;;;;;;;;;;;15.20;100.00;101395.13;4995623;28;19952;-69
2023/06/30 03:44:14;;;;;;;;;;;;;;;15.18;100.00;101395.28;5005518;28;20139;-69
2023/06/30 03:46:40;;;;;;;;;;;;;;;15.14;100.00;101390.50;4998390;28;19933;-69
2023/06/30 03:49:07;;;;;;;;;;;;;;;15.07;100.00;101386.84;5003768;28;20421;-70
2023/06/30 03:51:33;;;;;;;;;;;;;;;15.05;100.00;101392.28;4996948;28;20033;-69
2023/06/30 03:54:00;;;;;;;;;;;;;;;15.05;100.00;101394.94;5000824;28;19977;-70
2023/06/30 03:56:26;;;;;;;;;;;;;;;15.03;100.00;101396.91;5003962;28;19925;-70
2023/06/30 03:58:52;;;;;;;;;;;;;;;14.99;100.00;101387.66;4999956;28;19976;-70
2023/06/30 04:01:19;;;;;;;;;;;;;;;14.98;100.00;101394.75;5005592;28;19988;-70
2023/06/30 04:03:46;;;;;;;;;;;;;;;14.93;100.00;101388.31;4996753;28;19926;-70
2023/06/30 04:06:13;;;;;;;;;;;;;;;14.91;100.00;101387.63;5000994;28;19933;-69
2023/06/30 04:08:39;;;;;;;;;;;;;;;14.90;100.00;101381.53;4993236;28;19929;-70
2023/06/30 04:11:05;;;;;;;;;;;;;;;14.89;100.00;101381.69;5005565;28;19933;-70
2023/06/30 04:13:32;;;;;;;;;;;;;;;14.85;100.00;101378.53;5002525;28;19976;-69
2023/06/30 04:15:59;;;;;;;;;;;;;;;14.83;100.00;101375.22;4985948;28;20016;-70
2023/06/30 04:18:26;;;;;;;;;;;;;;;14.82;100.00;101373.59;5003829;28;19933;-70
2023/06/30 04:20:53;;;;;;;;;;;;;;;14.84;100.00;101374.25;4992373;28;19964;-70
2023/06/30 04:23:19;;;;;;;;;;;;;;;14.87;100.00;101373.91;4986662;28;19933;-70
2023/06/30 04:25:46;;;;;;;;;;;;;;;14.87;100.00;101373.91;4998673;28;19972;-69
2023/06/30 04:28:13;;;;;;;;;;;;;;;14.85;100.00;101369.78;5005686;28;20488;-70
2023/06/30 04:30:39;;;;;;;;;;;;;;;14.86;100.00;101369.63;5004106;28;19930;-69
2023/06/30 04:33:06;;;;;;;;;;;;;;;14.86;100.00;101367.00;4996525;28;20429;-69
2023/06/30 04:35:32;;;;;;;;;;;;;;;14.84;100.00;101361.06;4999748;28;19976;-70
2023/06/30 04:37:58;;;;;;;;;;;;;;;14.83;100.00;101373.41;4996911;28;19979;-70
2023/06/30 04:40:25;;;;;;;;;;;;;;;14.83;100.00;101369.94;5006091;28;19929;-70
2023/06/30 04:42:51;;;;;;;;;;;;;;;14.84;100.00;101371.63;4998829;28;19935;-70
2023/06/30 04:45:18;;;;;;;;;;;;;;;14.82;100.00;101366.50;5005252;28;19935;-70
2023/06/30 04:47:44;;;;;;;;;;;;;;;14.83;100.00;101369.94;4984719;28;19953;-69
2023/06/30 04:50:11;;;;;;;;;;;;;;;14.81;100.00;101371.94;4984849;28;19934;-69
2023/06/30 04:52:37;;;;;;;;;;;;;;;14.78;100.00;101372.25;5004406;28;20023;-69
2023/06/30 04:55:04;;;;;;;;;;;;;;;14.79;100.00;101379.19;5002431;28;19963;-69
2023/06/30 04:57:30;;;;;;;;;;;;;;;14.80;100.00;101375.56;5007460;28;19930;-68
2023/06/30 04:59:57;;;;;;;;;;;;;;;14.82;100.00;101373.59;5000699;28;20432;-69
2023/06/30 05:02:23;;;;;;;;;;;;;;;14.85;100.00;101375.06;5004334;28;19965;-70
2023/06/30 05:04:51;;;;;;;;;;;;;;;14.91;100.00;101377.88;5005547;28;19933;-70
2023/06/30 05:07:17;;;;;;;;;;;;;;;14.91;100.00;101380.53;5003462;28;20386;-69
2023/06/30 05:09:46;;;;;;;;;;;;;;;14.97;100.00;101373.78;5008903;28;20114;-70
2023/06/30 05:12:12;;;;;;;;;;;;;;;14.97;100.00;101376.41;5001571;28;20020;-70
2023/06/30 05:14:39;;;;;;;;;;;;;;;15.05;100.00;101383.53;5004272;28;19929;-69
2023/06/30 05:17:05;;;;;;;;;;;;;;;15.09;100.00;101384.88;4997343;28;19933;-69
2023/06/30 05:19:32;;;;;;;;;;;;;;;15.15;100.00;101381.56;5004728;28;19988;-69
2023/06/30 05:21:58;;;;;;;;;;;;;;;15.17;100.00;101376.94;5006139;28;20032;-69
2023/06/30 05:24:25;;;;;;;;;;;;;;;15.25;100.00;101384.06;5002153;28;19926;-70
2023/06/30 05:26:53;;;;;;;;;;;;;;;15.26;100.00;101386.53;5008677;28;20366;-70
2023/06/30 05:29:20;;;;;;;;;;;;;;;15.28;100.00;101384.56;4998244;28;19925;-69
2023/06/30 05:31:46;;;;;;;;;;;;;;;15.31;100.00;101384.25;5000163;28;19952;-69
2023/06/30 05:34:16;;;;;;;;;;;;;;;15.37;100.00;101382.78;5002792;28;19925;-69
2023/06/30 05:36:44;;;;;;;;;;;;;;;15.39;100.00;101378.97;5008548;28;19929;-69
2023/06/30 05:39:10;;;;;;;;;;;;;;;15.45;100.00;101395.19;5008974;28;19929;-69
2023/06/30 05:41:37;;;;;;;;;;;;;;;15.47;100.00;101383.44;5000625;28;19968;-69
2023/06/30 05:44:05;;;;;;;;;;;;;;;15.50;100.00;101388.38;5000359;28;19991;-69
2023/06/30 05:46:32;;;;;;;;;;;;;;;15.52;100.00;101391.69;4996904;28;19988;-69
2023/06/30 05:49:02;;;;;;;;;;;;;;;15.55;100.00;101395.84;5006805;28;20479;-69
2023/06/30 05:51:28;;;;;;;;;;;;;;;15.62;100.00;101400.31;5002200;28;19995;-69
2023/06/30 05:53:54;;;;;;;;;;;;;;;15.70;100.00;101406.56;4990173;28;19941;-69
2023/06/30 05:56:21;;;;;;;;;;;;;;;15.74;100.00;101402.63;5001858;28;19999;-68
2023/06/30 05:58:47;;;;;;;;;;;;;;;15.74;100.00;101406.13;4999665;28;19934;-69
2023/06/30 06:01:14;;;;;;;;;;;;;;;15.78;100.00;101407.44;4997906;28;20389;-69
2023/06/30 06:03:40;;;;;;;;;;;;;;;15.81;100.00;101403.63;4986852;28;20423;-69
2023/06/30 06:06:06;;;;;;;;;;;;;;;15.84;100.00;101400.66;4998313;28;20303;-69
2023/06/30 06:08:33;;;;;;;;;;;;;;;15.89;100.00;101403.59;5001564;28;19957;-69
2023/06/30 06:10:59;;;;;;;;;;;;;;;15.93;100.00;101406.75;5004224;28;19929;-69
2023/06/30 06:13:33;;;;;;;;;;;;;;;15.97;100.00;101402.75;4997032;28;20262;-68
2023/06/30 06:15:59;;;;;;;;;;;;;;;15.97;100.00;101400.13;5008205;28;20016;-69
2023/06/30 06:18:26;;;;;;;;;;;;;;;16.02;100.00;101401.28;5008575;28;20080;-69
2023/06/30 06:20:52;;;;;;;;;;;;;;;16.04;100.00;101397.66;5001569;28;19969;-70
2023/06/30 06:23:19;;;;;;;;;;;;;;;16.06;100.00;101398.31;5007764;28;20385;-69
2023/06/30 06:25:45;;;;;;;;;;;;;;;16.12;100.00;101398.44;4988905;28;20028;-70
2023/06/30 06:28:12;;;;;;;;;;;;;;;16.18;100.00;101404.88;4999013;28;20378;-69
2023/06/30 06:30:38;;;;;;;;;;;;;;;16.28;100.00;101402.06;4999803;28;20031;-70
2023/06/30 06:33:04;;;;;;;;;;;;;;;16.31;100.00;101405.19;5007163;28;19930;-68
2023/06/30 06:35:32;;;;;;;;;;;;;;;16.37;100.00;101395.75;5004614;28;20318;-69
2023/06/30 06:38:00;;;;;;;;;;;;;;;16.44;100.00;101401.19;4999346;28;19929;-69
2023/06/30 06:40:28;;;;;;;;;;;;;;;16.43;100.00;101403.00;5002382;28;19984;-68
2023/06/30 06:42:55;;;;;;;;;;;;;;;16.45;100.00;101394.91;5001145;28;19975;-69
2023/06/30 06:45:22;;;;;;;;;;;;;;;16.46;100.00;101396.53;5004972;28;19949;-69
2023/06/30 06:48:07;;;;;;;;;;;;;;;16.50;100.00;101388.06;5000696;28;19936;-69
2023/06/30 06:50:33;;;;;;;;;;;;;;;16.54;100.00;101394.69;5007120;28;19929;-68
2023/06/30 06:53:00;;;;;;;;;;;;;;;16.60;100.00;101398.44;4985179;28;20016;-69
2023/06/30 06:55:26;;;;;;;;;;;;;;;16.66;100.00;101397.78;4994943;28;19929;-68
2023/06/30 06:57:53;;;;;;;;;;;;;;;16.67;98.25;101401.25;5006835;28;20337;-68
2023/06/30 07:00:20;;;;;;;;;;;;;;;16.71;98.62;101400.72;4997115;28;19925;-69
2023/06/30 07:02:46;;;;;;;;;;;;;;;16.76;100.00;101401.06;5003954;28;19936;-69
2023/06/30 07:05:12;;;;;;;;;;;;;;;16.82;96.38;101401.38;4984686;28;19925;-70
2023/06/30 07:07:39;;;;;;;;;;;;;;;16.84;96.43;101410.81;5001130;28;19965;-68
2023/06/30 07:10:05;;;;;;;;;;;;;;;16.90;95.76;101411.94;5001592;28;19999;-69
2023/06/30 07:12:32;;;;;;;;;;;;;;;16.98;97.19;101411.91;4998915;28;19926;-71
2023/06/30 07:14:58;;;;;;;;;;;;;;;17.02;96.79;101407.09;5003109;28;20698;-70
2023/06/30 07:17:25;;;;;;;;;;;;;;;17.09;96.61;101400.91;4995070;28;19979;-70
2023/06/30 07:19:51;;;;;;;;;;;;;;;17.16;97.01;101396.53;5005459;28;19968;-68
2023/06/30 07:22:17;;;;;;;;;;;;;;;17.22;95.33;101402.16;4989462;28;20343;-70
2023/06/30 07:24:44;;;;;;;;;;;;;;;17.22;94.73;101396.84;5001616;28;20542;-70
2023/06/30 07:27:10;;;;;;;;;;;;;;;17.29;90.42;101406.56;5005627;28;20441;-69
2023/06/30 07:29:36;;;;;;;;;;;;;;;17.34;88.51;101406.03;4981274;28;20016;-70
2023/06/30 07:32:03;;;;;;;;;;;;;;;17.33;86.43;101404.41;5006014;28;20310;-70
2023/06/30 07:34:33;;;;;;;;;;;;;;;17.40;85.02;101402.66;4992165;28;20473;-70
2023/06/30 07:37:03;;;;;;;;;;;;;;;17.48;89.32;101394.66;4994002;28;19972;-70
2023/06/30 07:39:31;;;;;;;;;;;;;;;17.51;84.02;101398.78;4999443;28;20592;-69
2023/06/30 07:41:57;;;;;;;;;;;;;;;17.55;82.50;101400.09;5000366;28;19937;-71
2023/06/30 07:44:23;;;;;;;;;;;;;;;17.66;82.84;101390.84;4981681;28;20520;-70
2023/06/30 07:46:50;;;;;;;;;;;;;;;17.71;77.67;101399.94;4998695;28;19932;-71
2023/06/30 07:49:16;;;;;;;;;;;;;;;17.76;79.53;101404.72;5000312;28;19964;-71
2023/06/30 07:51:45;;;;;;;;;;;;;;;17.77;77.40;101399.22;4991128;28;19933;-70
2023/06/30 07:54:11;;;;;;;;;;;;;;;17.81;74.90;101404.16;5006193;28;19936;-70
2023/06/30 07:56:38;;;;;;;;;;;;;;;17.84;73.95;101395.84;4999698;28;19979;-71
2023/06/30 07:59:04;;;;;;;;;;;;;;;17.92;76.57;101403.78;4997664;28;19930;-70
2023/06/30 08:01:31;;;;;;;;;;;;;;;18.04;75.86;101407.63;4997544;28;19933;-69
2023/06/30 08:03:57;;;;;;;;;;;;;;;18.07;72.71;101401.13;4985389;28;19930;-72
2023/06/30 08:06:25;;;;;;;;;;;;;;;18.11;73.22;101399.75;5000415;28;20263;-72
2023/06/30 08:08:51;;;;;;;;;;;;;;;18.17;71.24;101401.69;5001131;28;19929;-72
2023/06/30 08:11:17;;;;;;;;;;;;;;;18.25;73.12;101403.41;4987673;28;19976;-72
2023/06/30 08:13:44;;;;;;;;;;;;;;;18.30;72.35;101395.72;4990369;28;20481;-71
2023/06/30 08:16:10;;;;;;;;;;;;;;;18.39;74.99;101402.59;5001176;28;20012;-72
2023/06/30 08:18:37;;;;;;;;;;;;;;;18.47;72.05;101394.53;5001432;28;19984;-71
2023/06/30 08:21:15;;;;;;;;;;;;;;;18.61;73.35;101400.03;5002448;28;19929;-69
2023/06/30 08:23:42;;;;;;;;;;;;;;;18.72;70.56;101391.59;5009997;28;19953;-69
2023/06/30 08:26:08;;;;;;;;;;;;;;;18.87;71.16;101392.38;4980369;28;20341;-69
2023/06/30 08:28:35;;;;;;;;;;;;;;;18.98;68.99;101387.63;5006116;28;19933;-70
2023/06/30 08:31:01;;;;;;;;;;;;;;;19.06;67.28;101392.81;4993384;28;19940;-68
2023/06/30 08:33:28;;;;;;;;;;;;;;;19.20;66.83;101393.75;4992824;28;19925;-70
2023/06/30 08:36:05;;;;;;;;;;;;;;;19.27;63.19;101392.00;4998271;28;20020;-67
2023/06/30 08:38:32;;;;;;;;;;;;;;;19.62;64.32;101400.06;5009724;28;20021;-69
2023/06/30 08:41:00;;;;;;;;;;;;;;;19.94;65.09;101391.53;4996509;28;19933;-70
2023/06/30 08:43:27;;;;;;;;;;;;;;;20.24;61.44;101393.16;4999861;28;20472;-68
2023/06/30 08:45:54;;;;;;;;;;;;;;;20.62;61.50;101390.09;5002484;28;19975;-69
2023/06/30 08:48:20;;;;;;;;;;;;;;;20.92;56.79;101371.94;5004454;28;19964;-69
2023/06/30 08:50:47;;;;;;;;;;;;;;;20.89;53.89;101381.16;5011679;28;20882;-69
2023/06/30 08:53:16;;;;;;;;;;;;;;;21.14;55.08;101373.41;5002447;28;20386;-67
2023/06/30 08:55:42;;;;;;;;;;;;;;;21.52;56.89;101372.88;4990058;28;19936;-68
2023/06/30 08:58:10;;;;;;;;;;;;;;;21.81;54.87;101367.28;5009796;28;20410;-69
2023/06/30 09:00:50;;;;;;;;;;;;;;;22.09;54.05;101359.00;5002270;28;20305;-68
2023/06/30 09:03:16;;;;;;;;;;;;;;;22.29;52.53;101353.66;5004773;28;19941;-70
2023/06/30 09:05:45;;;;;;;;;;;;;;;22.53;51.03;101353.97;5001486;28;19936;-68
2023/06/30 09:08:38;;;;;;;;;;;;;;;22.81;51.74;101354.41;5002788;28;19964;-69
2023/06/30 09:11:07;;;;;;;;;;;;;;;22.74;50.07;101356.34;4995284;28;19961;-69
2023/06/30 09:13:37;;;;;;;;;;;;;;;22.34;50.81;101361.84;5006483;28;19925;-68
2023/06/30 09:16:08;;;;;;;;;;;;;;;22.44;50.14;101356.06;5002310;28;19969;-68
2023/06/30 09:18:34;;;;;;;;;;;;;;;22.86;52.13;101357.28;5008491;28;19942;-69
2023/06/30 09:21:05;;;;;;;;;;;;;;;22.77;48.54;101347.06;5006292;28;19929;-68
2023/06/30 09:23:32;;;;;;;;;;;;;;;22.78;48.21;101346.03;4997623;28;20054;-67
2023/06/30 09:25:58;;;;;;;;;;;;;;;22.47;49.00;101342.28;5004429;28;20020;-69
2023/06/30 09:28:24;;;;;;;;;;;;;;;22.38;50.52;101346.22;5001702;28;19940;-68
2023/06/30 09:30:51;;;;;;;;;;;;;;;22.08;50.38;101349.38;5002934;28;19935;-69
2023/06/30 09:33:18;;;;;;;;;;;;;;;21.94;48.93;101334.41;4996327;28;20489;-68
2023/06/30 09:35:45;;;;;;;;;;;;;;;22.54;53.19;101337.69;5006403;28;20036;-68
2023/06/30 09:38:13;;;;;;;;;;;;;;;23.12;52.50;101331.41;5007393;28;19930;-68
2023/06/30 09:40:43;;;;;;;;;;;;;;;23.44;50.66;101337.56;5001163;28;19929;-68
2023/06/30 09:43:14;;;;;;;;;;;;;;;23.55;48.93;101333.31;4984871;28;19929;-68
2023/06/30 09:45:42;;;;;;;;;;;;;;;23.43;49.13;101338.56;4988938;28;20038;-69
2023/06/30 09:48:10;;;;;;;;;;;;;;;23.24;49.28;101344.91;5004246;28;19968;-68
2023/06/30 09:50:36;;;;;;;;;;;;;;;23.20;48.68;101339.16;5002396;28;20271;-67
2023/06/30 09:53:03;;;;;;;;;;;;;;;23.19;48.12;101336.69;5007969;28;19933;-69
2023/06/30 09:55:29;;;;;;;;;;;;;;;23.00;49.10;101327.78;4994391;28;19929;-69
2023/06/30 09:57:56;;;;;;;;;;;;;;;22.90;49.91;101333.59;5000217;28;19925;-68
2023/06/30 10:00:25;;;;;;;;;;;;;;;22.67;48.55;101336.81;5008402;28;19996;-68
2023/06/30 10:03:02;;;;;;;;;;;;;;;22.61;48.88;101333.13;4994914;28;19969;-69
2023/06/30 10:05:29;;;;;;;;;;;;;;;22.68;50.21;101338.47;5006660;28;19925;-68
2023/06/30 10:07:57;;;;;;;;;;;;;;;22.65;49.25;101336.22;4989859;28;19976;-68
2023/06/30 10:10:24;;;;;;;;;;;;;;;22.58;48.97;101336.25;5000380;28;20012;-70
2023/06/30 10:12:52;;;;;;;;;;;;;;;22.71;50.08;101335.34;5004411;28;19929;-68
2023/06/30 10:15:18;;;;;;;;;;;;;;;22.68;49.72;101335.81;5000448;28;20594;-67
2023/06/30 10:17:45;;;;;;;;;;;;;;;22.65;49.59;101334.34;4999732;28;19929;-68
2023/06/30 10:20:12;;;;;;;;;;;;;;;22.61;49.30;101333.13;4996808;28;19957;-69
2023/06/30 10:22:38;;;;;;;;;;;;;;;22.66;51.21;101325.31;4986587;28;19975;-69
2023/06/30 10:25:06;;;;;;;;;;;;;;;22.79;51.21;101328.94;4986762;28;19926;-68
2023/06/30 10:27:33;;;;;;;;;;;;;;;22.60;49.97;101325.31;4999048;28;20451;-70
2023/06/30 10:30:00;;;;;;;;;;;;;;;22.38;50.34;101328.31;5005479;28;20118;-71
2023/06/30 10:32:27;;;;;;;;;;;;;;;22.61;51.38;101316.28;5000430;28;19979;-70
2023/06/30 10:34:53;;;;;;;;;;;;;;;22.62;49.88;101320.59;5006674;28;20009;-68
2023/06/30 10:37:20;;;;;;;;;;;;;;;22.68;49.89;101317.09;4993963;28;20012;-68
2023/06/30 10:39:47;;;;;;;;;;;;;;;22.55;49.12;101315.28;4994864;28;20959;-71
2023/06/30 10:42:15;;;;;;;;;;;;;;;22.56;49.76;101314.28;4998094;28;19936;-71
2023/06/30 10:44:46;;;;;;;;;;;;;;;22.62;50.52;101310.72;5005709;28;20007;-71
2023/06/30 10:47:22;;;;;;;;;;;;;;;22.43;50.01;101307.13;4985352;28;20360;-70
2023/06/30 10:49:53;;;;;;;;;;;;;;;;;;4996119;28;19991;-70
2023/06/30 10:52:30;;;;;;;;;;;;;;;22.30;50.54;101315.19;4998367;28;19936;-71
2023/06/30 10:55:06;;;;;;;;;;;;;;;22.55;52.39;101311.81;4993323;28;20349;-71
2023/06/30 10:57:39;;;;;;;;;;;;;;;22.84;52.45;101316.56;4995832;28;20305;-70
2023/06/30 11:00:06;;;;;;;;;;;;;;;22.84;49.46;101315.75;4997966;28;19925;-69
2023/06/30 11:02:33;;;;;;;;;;;;;;;22.87;49.67;101313.47;5005119;28;19975;-70
2023/06/30 11:05:18;;;;;;;;;;;;;;;22.94;49.84;101296.53;4973734;28;19936;-70
2023/06/30 11:07:48;;;;;;;;;;;;;;;22.69;49.02;101306.16;5000439;28;20522;-70
2023/06/30 11:10:24;;;;;;;;;;;;;;;23.04;49.74;101299.59;5008554;28;20017;-69
2023/06/30 11:12:52;;;;;;;;;;;;;;;22.95;48.21;101295.50;4986484;28;19977;-71
2023/06/30 11:15:41;;;;;;;;;;;;;;;23.08;48.74;101296.25;5005932;28;19940;-71
2023/06/30 11:18:12;;;;;;;;;;;;;;;23.19;48.04;101289.38;4986302;28;19941;-70
2023/06/30 11:20:39;;;;;;;;;;;;;;;23.38;47.72;101289.41;4998074;28;19929;-70
2023/06/30 11:23:16;;;;;;;;;;;;;;;23.78;49.14;101295.22;4997284;28;21365;-71
2023/06/30 11:25:44;;;;;;;;;;;;;;;24.40;50.57;101283.53;5003236;28;19932;-70
2023/06/30 11:28:12;;;;;;;;;;;;;;;24.71;48.41;101282.50;4998018;28;19933;-70
2023/06/30 11:30:38;;;;;;;;;;;;;;;24.80;46.02;101275.78;4988725;28;19940;-71
2023/06/30 11:33:06;;;;;;;;;;;;;;;25.05;45.59;101274.75;4987194;28;20400;-70
2023/06/30 11:35:33;;;;;;;;;;;;;;;24.95;46.41;101287.91;5000452;28;19926;-71
2023/06/30 11:38:00;;;;;;;;;;;;;;;24.58;45.21;101283.53;5004212;28;20514;-70
2023/06/30 11:40:27;;;;;;;;;;;;;;;24.67;45.67;101279.44;4999851;28;19925;-70
2023/06/30 11:42:53;;;;;;;;;;;;;;;24.78;47.65;101285.09;4987138;28;19925;-70
2023/06/30 11:45:20;;;;;;;;;;;;;;;25.00;46.12;101280.81;4992972;28;20567;-70
2023/06/30 11:47:54;;;;;;;;;;;;;;;24.78;45.89;101277.06;5000208;28;19980;-71
2023/06/30 11:50:20;;;;;;;;;;;;;;;24.95;46.89;101266.44;4998856;28;19945;-68
2023/06/30 11:52:48;;;;;;;;;;;;;;;25.16;46.33;101273.13;5004327;28;19930;-71
2023/06/30 11:55:14;;;;;;;;;;;;;;;25.50;45.92;101271.53;4998857;28;19929;-71
2023/06/30 11:57:42;;;;;;;;;;;;;;;25.44;45.37;101273.28;4993655;28;20006;-70
2023/06/30 12:00:10;;;;;;;;;;;;;;;25.21;44.68;101265.22;4996609;28;19929;-71
2023/06/30 12:02:36;;;;;;;;;;;;;;;25.31;44.47;101270.84;4994134;28;19992;-70
2023/06/30 12:05:09;;;;;;;;;;;;;;;25.08;44.72;101270.78;5001917;28;19930;-71
2023/06/30 12:07:36;;;;;;;;;;;;;;;25.48;45.85;101265.56;4995392;28;19926;-70
2023/06/30 12:10:03;;;;;;;;;;;;;;;25.67;44.59;101257.38;5000827;28;20578;-70
2023/06/30 12:12:30;;;;;;;;;;;;;;;25.62;43.65;101250.84;5001590;28;20506;-71
2023/06/30 12:14:56;;;;;;;;;;;;;;;25.50;43.80;101254.59;4994316;28;20319;-72
2023/06/30 12:17:27;;;;;;;;;;;;;;;25.43;44.46;101262.78;4997334;28;19968;-71
2023/06/30 12:19:53;;;;;;;;;;;;;;;25.18;42.47;101254.91;4993186;28;19932;-71
2023/06/30 12:22:23;;;;;;;;;;;;;;;25.29;43.99;101248.78;5003067;28;19930;-70
2023/06/30 12:24:53;;;;;;;;;;;;;;;25.23;44.74;101255.09;5000347;28;20354;-68
2023/06/30 12:27:20;;;;;;;;;;;;;;;25.45;45.91;101256.09;5000509;28;19940;-69
2023/06/30 12:29:46;;;;;;;;;;;;;;;25.50;45.59;101250.06;4996608;28;19980;-68
2023/06/30 12:32:13;;;;;;;;;;;;;;;25.06;45.00;101249.56;4996180;28;19946;-69